Time;durP1;ratioP1;P1;durP2;ratioP2;P2;SDS_P1;SDS_P2;PMS_P1;PMS_P2;Temp;Humidity;BMP_temperature;BMP_pressure;BME280_temperature;BME280_humidity;BME280_pressure;Samples;Min_cycle;Max_cycle;Signal;HPM_P1;HPM_P2
2023/04/12 00:01:56;;;;;;;0.00;0.00;;;6.90;99.90;;;;;;4963607;28;20084;-73
2023/04/12 00:04:27;;;;;;;0.05;0.05;;;6.80;99.90;;;;;;4962038;28;20042;-73
2023/04/12 00:06:53;;;;;;;0.10;0.10;;;;;;;;;;4946609;28;20343;-74
2023/04/12 00:09:20;;;;;;;0.00;0.00;;;;;;;;;;4964455;28;20236;-74
2023/04/12 00:11:47;;;;;;;0.00;0.00;;;6.70;99.90;;;;;;4963313;28;20126;-73
2023/04/12 00:14:13;;;;;;;0.10;0.10;;;6.80;99.90;;;;;;4962457;28;20039;-73
2023/04/12 00:16:40;;;;;;;0.10;0.10;;;;;;;;;;4963044;28;20097;-74
2023/04/12 00:19:06;;;;;;;0.05;0.05;;;;;;;;;;4962367;28;20043;-74
2023/04/12 00:21:32;;;;;;;0.10;0.10;;;;;;;;;;4962746;28;20498;-73
2023/04/12 00:23:59;;;;;;;0.10;0.10;;;6.70;99.90;;;;;;4962676;28;20030;-74
2023/04/12 00:26:25;;;;;;;0.30;0.30;;;6.90;99.90;;;;;;4962976;28;20019;-75
2023/04/12 00:28:50;;;;;;;0.10;0.10;;;6.60;99.90;;;;;;4946115;28;20260;-73
2023/04/12 00:31:16;;;;;;;0.10;0.10;;;6.80;99.90;;;;;;4965550;28;20019;-77
2023/04/12 00:33:42;;;;;;;0.10;0.10;;;6.60;99.90;;;;;;4965521;28;20035;-74
2023/04/12 00:36:08;;;;;;;0.00;0.00;;;6.50;99.90;;;;;;4961721;28;20414;-74
2023/04/12 00:38:34;;;;;;;0.00;0.00;;;6.60;99.90;;;;;;4964853;28;20037;-74
2023/04/12 00:41:00;;;;;;;0.10;0.10;;;6.50;99.90;;;;;;4963797;28;20038;-73
2023/04/12 00:43:26;;;;;;;0.10;0.10;;;6.50;99.90;;;;;;4963739;28;20015;-73
2023/04/12 00:45:55;;;;;;;48.38;45.28;;;8.00;99.90;;;;;;4964416;28;20117;-73
2023/04/12 00:48:22;;;;;;;0.00;0.00;;;6.40;99.90;;;;;;4965093;28;20220;-74
2023/04/12 00:50:48;;;;;;;0.10;0.10;;;6.50;99.90;;;;;;4963748;28;20027;-75
2023/04/12 00:53:14;;;;;;;0.10;0.10;;;6.50;99.90;;;;;;4966133;28;20035;-74
2023/04/12 00:55:44;;;;;;;0.05;0.05;;;6.50;99.90;;;;;;4963990;28;20220;-73
2023/04/12 00:58:10;;;;;;;0.00;0.00;;;6.40;99.90;;;;;;4947103;28;20324;-74
2023/04/12 01:00:36;;;;;;;0.10;0.10;;;6.40;99.90;;;;;;4964651;28;20058;-73
2023/04/12 01:03:04;;;;;;;3.50;3.40;;;6.40;99.90;;;;;;4965878;28;20027;-73
2023/04/12 01:05:34;;;;;;;0.10;0.10;;;6.30;99.90;;;;;;4963380;28;20035;-74
2023/04/12 01:08:28;;;;;;;0.10;0.10;;;6.20;99.90;;;;;;4963323;28;20023;-75
2023/04/12 01:11:07;;;;;;;3.17;3.05;;;6.30;99.90;;;;;;4965657;28;20261;-73
2023/04/12 01:14:02;;;;;;;0.00;0.00;;;6.30;99.90;;;;;;4962436;28;20074;-73
2023/04/12 01:16:40;;;;;;;7.75;6.20;;;6.30;99.90;;;;;;4962785;28;20222;-74
2023/04/12 01:19:30;;;;;;;0.10;0.10;;;6.30;99.90;;;;;;4964493;28;20049;-73
2023/04/12 01:22:33;;;;;;;0.05;0.05;;;6.40;99.90;;;;;;4962257;28;20019;-73
2023/04/12 01:25:08;;;;;;;0.08;0.08;;;6.40;99.90;;;;;;4964898;28;20058;-74
2023/04/12 01:27:47;;;;;;;0.10;0.10;;;6.50;99.90;;;;;;4944860;28;20022;-74
2023/04/12 01:30:16;;;;;;;0.15;0.15;;;6.40;99.90;;;;;;4964472;28;20018;-74
2023/04/12 01:32:47;;;;;;;0.05;0.05;;;6.50;99.90;;;;;;4967237;28;20055;-73
2023/04/12 01:35:13;;;;;;;0.00;0.00;;;6.40;99.90;;;;;;4973772;28;20035;-73
2023/04/12 01:37:40;;;;;;;0.00;0.00;;;6.40;99.90;;;;;;4975237;28;20023;-74
2023/04/12 01:40:08;;;;;;;1.75;1.65;;;7.90;99.90;;;;;;4976585;28;20119;-73
2023/04/12 01:42:34;;;;;;;0.00;0.00;;;6.30;99.90;;;;;;4960166;28;20026;-76
2023/04/12 01:45:01;;;;;;;0.10;0.10;;;6.30;99.90;;;;;;4980876;28;20027;-74
2023/04/12 01:47:27;;;;;;;0.10;0.10;;;6.50;99.90;;;;;;4963813;28;20050;-75
2023/04/12 01:50:11;;;;;;;0.77;0.77;;;6.30;99.90;;;;;;4963920;28;20107;-75
2023/04/12 01:52:42;;;;;;;0.10;0.10;;;7.70;99.90;;;;;;4962780;28;20031;-74
2023/04/12 01:55:11;;;;;;;0.00;0.00;;;6.30;99.90;;;;;;4963984;28;20219;-74
2023/04/12 01:57:38;;;;;;;0.10;0.10;;;6.40;99.90;;;;;;4963705;28;20059;-73
2023/04/12 02:00:06;;;;;;;0.10;0.10;;;6.40;99.90;;;;;;4945854;28;20093;-74
2023/04/12 02:02:35;;;;;;;0.10;0.10;;;6.30;99.90;;;;;;4968299;28;20377;-74
2023/04/12 02:05:02;;;;;;;0.10;0.10;;;7.00;99.90;;;;;;4966444;28;20058;-73
2023/04/12 02:07:28;;;;;;;0.52;0.52;;;6.70;99.90;;;;;;4966998;28;20027;-74
2023/04/12 02:09:53;;;;;;;0.90;0.90;;;9.10;99.90;;;;;;4967292;28;20066;-74
2023/04/12 02:12:21;;;;;;;0.20;0.20;;;6.40;99.90;;;;;;4968257;28;20027;-74
2023/04/12 02:14:47;;;;;;;0.10;0.10;;;6.30;99.90;;;;;;4966447;28;20033;-74
2023/04/12 02:17:13;;;;;;;0.00;0.00;;;6.30;99.90;;;;;;4966434;28;20227;-73
2023/04/12 02:19:39;;;;;;;0.00;0.00;;;;;;;;;;4969096;28;20047;-74
2023/04/12 02:22:06;;;;;;;0.00;0.00;;;;;;;;;;4966342;28;20051;-73
2023/04/12 02:24:32;;;;;;;0.05;0.05;;;6.40;99.90;;;;;;4966860;28;20026;-74
2023/04/12 02:26:59;;;;;;;0.10;0.10;;;6.30;99.90;;;;;;4967497;28;20023;-74
2023/04/12 02:29:25;;;;;;;0.00;0.00;;;6.40;99.90;;;;;;4966758;28;20684;-73
2023/04/12 02:31:52;;;;;;;0.05;0.05;;;6.30;99.90;;;;;;4966919;28;20403;-74
2023/04/12 02:34:21;;;;;;;0.10;0.10;;;6.50;99.90;;;;;;4968514;28;20035;-73
2023/04/12 02:36:48;;;;;;;0.00;0.00;;;6.40;99.90;;;;;;4966705;28;20019;-74
2023/04/12 02:39:17;;;;;;;0.10;0.10;;;;;;;;;;4951204;28;20019;-74
2023/04/12 02:41:44;;;;;;;0.10;0.10;;;6.40;99.90;;;;;;4971254;28;20031;-74
2023/04/12 02:44:10;;;;;;;0.00;0.00;;;;;;;;;;4971374;28;20023;-76
2023/04/12 02:46:36;;;;;;;0.00;0.00;;;;;;;;;;4972190;28;20046;-73
2023/04/12 02:49:02;;;;;;;0.10;0.10;;;6.50;99.90;;;;;;4971219;28;20019;-74
2023/04/12 02:51:28;;;;;;;0.10;0.10;;;6.60;99.90;;;;;;4966134;28;20026;-73
2023/04/12 02:53:53;;;;;;;0.10;0.10;;;6.00;99.90;;;;;;4965427;28;20027;-73
2023/04/12 02:56:20;;;;;;;0.10;0.10;;;6.70;99.90;;;;;;4966460;28;20228;-73
2023/04/12 02:58:46;;;;;;;0.00;0.00;;;6.70;99.90;;;;;;4964223;28;20015;-73
2023/04/12 03:01:13;;;;;;;0.00;0.00;;;6.70;99.90;;;;;;4965076;28;20125;-73
2023/04/12 03:03:39;;;;;;;7.38;6.95;;;6.70;99.90;;;;;;4966300;28;20019;-74
2023/04/12 03:06:07;;;;;;;0.05;0.05;;;6.80;99.90;;;;;;4976048;28;20045;-73
2023/04/12 03:08:33;;;;;;;0.03;0.03;;;6.90;99.90;;;;;;4976082;28;20023;-74
2023/04/12 03:10:59;;;;;;;0.00;0.00;;;6.80;99.90;;;;;;4974294;28;20058;-73
2023/04/12 03:13:26;;;;;;;0.00;0.00;;;;;;;;;;4963192;28;20027;-74
2023/04/12 03:15:58;;;;;;;0.00;0.00;;;6.90;99.90;;;;;;4962841;28;20027;-73
2023/04/12 03:18:24;;;;;;;0.00;0.00;;;7.10;99.90;;;;;;4962208;28;20429;-74
2023/04/12 03:20:51;;;;;;;0.10;0.10;;;7.50;99.90;;;;;;4964659;28;20154;-74
2023/04/12 03:23:17;;;;;;;0.03;0.03;;;7.20;99.90;;;;;;4962641;28;20081;-73
2023/04/12 03:25:44;;;;;;;0.10;0.10;;;;;;;;;;4964143;28;20054;-74
2023/04/12 03:28:10;;;;;;;0.10;0.10;;;;;;;;;;4966220;28;20109;-74
2023/04/12 03:30:36;;;;;;;3.83;3.70;;;7.30;99.90;;;;;;4965542;28;20027;-74
2023/04/12 03:33:01;;;;;;;0.00;0.00;;;7.80;99.90;;;;;;4971602;28;20105;-75
2023/04/12 03:35:27;;;;;;;0.00;0.00;;;7.30;99.90;;;;;;4966915;28;20031;-76
2023/04/12 03:37:53;;;;;;;0.00;0.00;;;;;;;;;;4947774;28;20022;-73
2023/04/12 03:40:19;;;;;;;0.20;0.20;;;7.40;99.90;;;;;;4964911;28;20421;-73
2023/04/12 03:42:45;;;;;;;0.00;0.00;;;7.40;99.90;;;;;;4947520;28;20022;-74
2023/04/12 03:45:11;;;;;;;0.08;0.08;;;7.40;99.90;;;;;;4964938;28;20047;-73
2023/04/12 03:47:37;;;;;;;0.00;0.00;;;7.40;99.90;;;;;;4964354;28;20770;-74
2023/04/12 03:50:09;;;;;;;0.10;0.10;;;7.40;99.90;;;;;;4966234;28;20035;-72
2023/04/12 03:52:35;;;;;;;0.10;0.10;;;6.10;99.90;;;;;;4948579;28;20018;-73
2023/04/12 03:55:01;;;;;;;0.10;0.10;;;7.40;99.90;;;;;;4966285;28;20041;-74
2023/04/12 03:57:26;;;;;;;0.10;0.10;;;7.40;99.90;;;;;;4965277;28;20320;-73
2023/04/12 03:59:52;;;;;;;0.00;0.00;;;8.40;99.90;;;;;;4963776;28;20034;-73
2023/04/12 04:02:18;;;;;;;9.95;9.30;;;7.30;99.90;;;;;;4963657;28;21864;-74
2023/04/12 04:04:44;;;;;;;0.00;0.00;;;7.30;99.90;;;;;;4962157;28;20041;-74
2023/04/12 04:07:10;;;;;;;0.00;0.00;;;7.40;99.90;;;;;;4962883;28;20026;-74
2023/04/12 04:09:36;;;;;;;0.10;0.10;;;7.40;99.90;;;;;;4961775;28;20027;-73
2023/04/12 04:12:02;;;;;;;0.10;0.10;;;7.40;99.90;;;;;;4961572;28;20643;-74
2023/04/12 04:14:28;;;;;;;0.00;0.00;;;;;;;;;;4962260;28;20026;-74
2023/04/12 04:16:54;;;;;;;0.00;0.00;;;;;;;;;;4960761;28;20042;-75
2023/04/12 04:19:20;;;;;;;0.10;0.10;;;7.00;99.90;;;;;;4960578;28;20084;-78
2023/04/12 04:21:48;;;;;;;0.10;0.10;;;;;;;;;;4960349;28;20082;-75
2023/04/12 04:24:17;;;;;;;0.10;0.10;;;6.90;99.90;;;;;;4962926;28;20019;-73
2023/04/12 04:26:44;;;;;;;1.27;1.27;;;6.90;99.90;;;;;;4961591;28;20118;-73
2023/04/12 04:29:11;;;;;;;1.30;1.20;;;6.90;99.90;;;;;;4945250;28;20019;-73
2023/04/12 04:31:36;;;;;;;0.60;0.60;;;6.80;99.90;;;;;;4944595;28;20042;-74
2023/04/12 04:34:07;;;;;;;1.77;1.70;;;6.80;99.90;;;;;;4962402;28;20655;-74
2023/04/12 04:36:35;;;;;;;0.00;0.00;;;6.90;99.90;;;;;;4962243;28;20041;-73
2023/04/12 04:39:02;;;;;;;0.00;0.00;;;7.40;99.90;;;;;;4963102;28;20085;-74
2023/04/12 04:41:33;;;;;;;0.00;0.00;;;7.40;99.90;;;;;;4962055;28;20352;-73
2023/04/12 04:44:03;;;;;;;0.00;0.00;;;6.90;99.90;;;;;;4945536;28;20023;-74
2023/04/12 04:46:30;;;;;;;0.05;0.05;;;;;;;;;;4945225;28;20037;-74
2023/04/12 04:48:57;;;;;;;7.80;7.57;;;7.00;99.90;;;;;;4964251;28;20057;-73
2023/04/12 04:51:23;;;;;;;0.03;0.03;;;6.80;99.90;;;;;;4966966;28;20105;-74
2023/04/12 04:53:49;;;;;;;2.92;2.72;;;6.80;99.90;;;;;;4967541;28;20033;-73
2023/04/12 04:56:15;;;;;;;0.03;0.03;;;6.90;99.90;;;;;;4967859;28;20030;-74
2023/04/12 04:58:41;;;;;;;0.03;0.03;;;7.00;99.90;;;;;;4967322;28;20102;-74
2023/04/12 05:01:06;;;;;;;0.10;0.10;;;7.00;99.90;;;;;;4968505;28;20036;-75
2023/04/12 05:03:33;;;;;;;0.00;0.00;;;7.40;99.90;;;;;;4968967;28;20068;-73
2023/04/12 05:06:00;;;;;;;0.03;0.03;;;7.10;99.90;;;;;;4975556;28;20039;-73
2023/04/12 05:08:27;;;;;;;0.00;0.00;;;;;;;;;;4954555;28;20509;-73
2023/04/12 05:10:54;;;;;;;0.00;0.00;;;7.00;99.90;;;;;;4969600;28;20077;-73
2023/04/12 05:13:21;;;;;;;0.00;0.00;;;7.30;99.90;;;;;;4952902;28;20330;-75
2023/04/12 05:15:47;;;;;;;0.17;0.17;;;7.00;99.90;;;;;;4974123;28;20035;-74
2023/04/12 05:18:14;;;;;;;0.20;0.20;;;7.20;99.90;;;;;;4968291;28;20109;-73
2023/04/12 05:20:40;;;;;;;0.40;0.40;;;7.30;99.90;;;;;;4969992;28;20050;-75
2023/04/12 05:23:06;;;;;;;0.10;0.10;;;7.40;99.90;;;;;;4971750;28;20062;-73
2023/04/12 05:25:32;;;;;;;0.00;0.00;;;7.40;99.90;;;;;;4971523;28;20050;-74
2023/04/12 05:27:58;;;;;;;0.00;0.00;;;7.50;99.90;;;;;;4976250;28;20042;-74
2023/04/12 05:30:24;;;;;;;0.00;0.00;;;7.70;99.90;;;;;;4955400;28;20320;-74
2023/04/12 05:32:50;;;;;;;2.25;2.15;;;7.80;99.90;;;;;;4973533;28;20035;-74
2023/04/12 05:35:16;;;;;;;0.10;0.10;;;7.90;99.90;;;;;;4975098;28;20229;-73
2023/04/12 05:37:42;;;;;;;0.08;0.08;;;;;;;;;;4942925;28;20668;-74
2023/04/12 05:40:08;;;;;;;0.10;0.10;;;8.10;99.90;;;;;;4978711;28;20036;-73
2023/04/12 05:42:38;;;;;;;1.95;1.85;;;8.10;99.90;;;;;;4970989;28;20031;-73
2023/04/12 05:45:05;;;;;;;0.10;0.10;;;8.20;99.90;;;;;;4947970;28;20605;-73
2023/04/12 05:47:30;;;;;;;0.00;0.00;;;8.80;99.90;;;;;;4966956;28;20042;-73
2023/04/12 05:49:57;;;;;;;0.00;0.00;;;;;;;;;;4964941;28;20027;-74
2023/04/12 05:52:22;;;;;;;0.10;0.10;;;8.40;99.90;;;;;;4963435;28;20058;-75
2023/04/12 05:54:48;;;;;;;0.40;0.40;;;8.80;99.90;;;;;;4962982;28;20568;-74
2023/04/12 05:57:16;;;;;;;0.10;0.10;;;8.50;99.90;;;;;;4963412;28;20151;-74
2023/04/12 05:59:42;;;;;;;0.00;0.00;;;;;;;;;;4963031;28;20222;-74
2023/04/12 06:02:09;;;;;;;0.10;0.10;;;8.70;99.90;;;;;;4963302;28;20037;-75
2023/04/12 06:04:37;;;;;;;0.15;0.15;;;8.90;99.90;;;;;;4962771;28;20030;-74
2023/04/12 06:07:04;;;;;;;0.08;0.08;;;8.80;99.90;;;;;;4962809;28;20023;-74
2023/04/12 06:09:31;;;;;;;0.15;0.15;;;9.20;99.90;;;;;;4945674;28;20033;-73
2023/04/12 06:11:58;;;;;;;0.10;0.10;;;;;;;;;;4945497;28;20609;-74
2023/04/12 06:14:24;;;;;;;0.10;0.10;;;8.90;99.90;;;;;;4967506;28;20023;-73
2023/04/12 06:16:50;;;;;;;0.00;0.00;;;8.90;99.90;;;;;;4966802;28;20030;-74
2023/04/12 06:19:16;;;;;;;0.10;0.10;;;9.10;99.90;;;;;;4968838;28;20062;-74
2023/04/12 06:21:42;;;;;;;3.78;3.65;;;9.40;99.90;;;;;;4974610;28;20109;-74
2023/04/12 06:24:08;;;;;;;0.40;0.40;;;9.60;99.90;;;;;;4970128;28;20050;-74
2023/04/12 06:26:35;;;;;;;0.10;0.10;;;9.40;99.90;;;;;;4966695;28;20485;-73
2023/04/12 06:29:01;;;;;;;0.10;0.10;;;;;;;;;;4965719;28;20102;-73
2023/04/12 06:31:27;;;;;;;1.23;1.23;;;9.40;99.90;;;;;;4969968;28;20030;-73
2023/04/12 06:33:52;;;;;;;0.77;0.77;;;9.50;99.90;;;;;;4967395;28;20355;-74
2023/04/12 06:36:18;;;;;;;4.72;4.55;;;10.20;99.90;;;;;;4966136;28;20046;-74
2023/04/12 06:38:44;;;;;;;0.10;0.10;;;;;;;;;;4966277;28;20031;-74
2023/04/12 06:41:10;;;;;;;1.83;1.75;;;9.60;99.90;;;;;;4966995;28;20481;-74
2023/04/12 06:43:36;;;;;;;2.17;2.08;;;9.70;99.90;;;;;;4966755;28;20264;-76
2023/04/12 06:46:02;;;;;;;0.30;0.30;;;9.70;99.90;;;;;;4965838;28;20621;-74
2023/04/12 06:48:28;;;;;;;0.57;0.55;;;12.70;99.90;;;;;;4967420;28;20053;-74
2023/04/12 06:50:54;;;;;;;0.13;0.13;;;9.90;99.90;;;;;;4964724;28;20023;-75
2023/04/12 06:53:20;;;;;;;0.22;0.22;;;9.10;99.90;;;;;;4966006;28;20020;-75
2023/04/12 06:55:47;;;;;;;1.00;1.00;;;10.50;99.90;;;;;;4971184;28;20217;-74
2023/04/12 06:58:13;;;;;;;0.20;0.20;;;10.30;99.90;;;;;;4974536;28;20077;-76
2023/04/12 07:00:38;;;;;;;0.10;0.10;;;10.40;99.90;;;;;;4958488;28;20047;-74
2023/04/12 07:03:04;;;;;;;0.10;0.10;;;10.50;99.90;;;;;;4956514;28;20049;-74
2023/04/12 07:05:30;;;;;;;0.10;0.10;;;10.20;99.90;;;;;;4969288;28;20402;-75
2023/04/12 07:07:56;;;;;;;0.20;0.20;;;10.60;99.90;;;;;;4967622;28;20011;-74
2023/04/12 07:10:22;;;;;;;0.10;0.10;;;10.50;99.90;;;;;;4965865;28;20340;-73
2023/04/12 07:12:48;;;;;;;0.20;0.20;;;10.70;99.90;;;;;;4967647;28;20053;-74
2023/04/12 07:15:14;;;;;;;0.20;0.20;;;10.80;99.90;;;;;;4966586;28;20293;-73
2023/04/12 07:17:40;;;;;;;0.10;0.10;;;10.90;99.90;;;;;;4967747;28;20046;-73
2023/04/12 07:20:06;;;;;;;0.10;0.10;;;9.50;99.90;;;;;;4950044;28;20373;-73
2023/04/12 07:22:32;;;;;;;0.10;0.10;;;11.00;99.90;;;;;;4967811;28;20033;-74
2023/04/12 07:24:57;;;;;;;0.20;0.20;;;11.10;99.90;;;;;;4965413;28;20027;-73
2023/04/12 07:27:23;;;;;;;0.08;0.08;;;11.20;99.90;;;;;;4967092;28;20109;-73
2023/04/12 07:29:52;;;;;;;0.10;0.10;;;11.30;99.90;;;;;;4968493;28;20031;-76
2023/04/12 07:32:18;;;;;;;0.10;0.10;;;11.30;99.90;;;;;;4964967;28;20191;-73
2023/04/12 07:34:43;;;;;;;0.10;0.10;;;11.30;99.90;;;;;;4963326;28;20363;-73
2023/04/12 07:37:09;;;;;;;0.10;0.10;;;11.40;99.90;;;;;;4963919;28;20031;-73
2023/04/12 07:39:36;;;;;;;0.10;0.10;;;11.70;99.90;;;;;;4964849;28;20086;-74
2023/04/12 07:42:02;;;;;;;0.20;0.20;;;11.40;99.90;;;;;;4966593;28;20037;-73
2023/04/12 07:44:29;;;;;;;0.10;0.10;;;14.40;99.90;;;;;;4964048;28;20421;-75
2023/04/12 07:46:55;;;;;;;0.10;0.10;;;11.60;99.90;;;;;;4963974;28;20023;-73
2023/04/12 07:49:21;;;;;;;0.10;0.10;;;14.40;99.90;;;;;;4963241;28;20019;-75
2023/04/12 07:51:48;;;;;;;0.10;0.10;;;12.20;99.90;;;;;;4964511;28;20126;-76
2023/04/12 07:54:14;;;;;;;0.10;0.10;;;11.70;99.90;;;;;;4960478;28;20030;-75
2023/04/12 07:56:40;;;;;;;0.13;0.13;;;;;;;;;;4959902;28;20042;-74
2023/04/12 07:59:06;;;;;;;0.10;0.10;;;12.00;99.90;;;;;;4960443;28;20034;-75
2023/04/12 08:01:32;;;;;;;0.10;0.10;;;12.20;99.90;;;;;;4941954;28;20027;-75
2023/04/12 08:03:58;;;;;;;0.13;0.13;;;12.40;99.90;;;;;;4960391;28;20026;-80
2023/04/12 08:06:23;;;;;;;0.10;0.10;;;12.70;99.90;;;;;;4962096;28;20061;-74
2023/04/12 08:08:49;;;;;;;0.10;0.10;;;9.90;97.40;;;;;;4962099;28;20118;-75
2023/04/12 08:11:15;;;;;;;0.10;0.10;;;12.80;98.50;;;;;;4959689;28;20023;-74
2023/04/12 08:13:41;;;;;;;0.10;0.10;;;12.80;97.90;;;;;;4963300;28;20038;-76
2023/04/12 08:16:07;;;;;;;0.20;0.20;;;12.90;97.80;;;;;;4965959;28;20763;-74
2023/04/12 08:18:33;;;;;;;0.20;0.20;;;13.60;96.40;;;;;;4969732;28;20027;-73
2023/04/12 08:21:00;;;;;;;0.15;0.15;;;13.00;96.30;;;;;;4959339;28;20120;-77
2023/04/12 08:23:27;;;;;;;0.57;0.57;;;13.00;96.50;;;;;;4944464;28;20098;-80
2023/04/12 08:26:02;;;;;;;0.10;0.10;;;13.00;93.80;;;;;;4941385;28;20026;-75
2023/04/12 08:28:28;;;;;;;0.20;0.20;;;13.00;98.20;;;;;;4958897;28;20571;-74
2023/04/12 08:30:54;;;;;;;0.10;0.10;;;13.50;93.90;;;;;;4941076;28;20022;-74
2023/04/12 08:33:20;;;;;;;0.10;0.10;;;13.90;93.60;;;;;;4958263;28;20015;-73
2023/04/12 08:35:46;;;;;;;0.10;0.10;;;13.30;93.10;;;;;;4958561;28;20041;-74
2023/04/12 08:38:12;;;;;;;0.13;0.13;;;;;;;;;;4941991;28;20578;-74
2023/04/12 08:40:42;;;;;;;0.10;0.10;;;13.40;91.60;;;;;;4959102;28;20019;-73
2023/04/12 08:43:10;;;;;;;0.10;0.10;;;13.40;93.10;;;;;;4959593;28;20011;-75
2023/04/12 08:45:36;;;;;;;0.20;0.20;;;13.30;92.10;;;;;;4946053;28;20029;-75
2023/04/12 08:48:04;;;;;;;0.20;0.20;;;13.50;92.40;;;;;;4962250;28;20026;-76
2023/04/12 08:50:31;;;;;;;0.13;0.13;;;13.60;91.80;;;;;;4962402;28;20616;-75
2023/04/12 08:52:58;;;;;;;2.35;2.25;;;13.60;88.00;;;;;;4943056;28;20109;-74
2023/04/12 08:55:24;;;;;;;0.20;0.20;;;;;;;;;;4960752;28;20125;-74
2023/04/12 08:57:54;;;;;;;0.20;0.20;;;13.60;87.90;;;;;;4961797;28;20027;-74
2023/04/12 09:00:21;;;;;;;4.25;3.95;;;14.00;88.70;;;;;;4961678;28;20690;-74
2023/04/12 09:02:47;;;;;;;0.10;0.10;;;;;;;;;;4961756;28;20296;-74
2023/04/12 09:05:14;;;;;;;0.10;0.10;;;14.20;85.30;;;;;;4962034;28;20089;-74
2023/04/12 09:07:41;;;;;;;0.55;0.55;;;15.10;87.10;;;;;;4955165;28;20095;-75
2023/04/12 09:10:07;;;;;;;0.10;0.10;;;14.40;83.00;;;;;;4962589;28;20029;-73
2023/04/12 09:12:32;;;;;;;0.22;0.22;;;14.60;81.60;;;;;;4963530;28;20019;-75
2023/04/12 09:15:08;;;;;;;0.10;0.10;;;14.50;81.00;;;;;;4963551;28;20030;-73
2023/04/12 09:17:37;;;;;;;0.10;0.10;;;14.40;80.60;;;;;;4970375;28;20030;-71
2023/04/12 09:20:15;;;;;;;0.10;0.10;;;14.40;80.10;;;;;;4969478;28;20105;-73
2023/04/12 09:22:44;;;;;;;0.10;0.10;;;14.20;79.10;;;;;;4969732;28;20079;-72
2023/04/12 09:25:11;;;;;;;0.10;0.10;;;14.00;79.30;;;;;;4967318;28;20026;-72
2023/04/12 09:27:46;;;;;;;0.10;0.10;;;14.20;77.90;;;;;;4970248;28;20018;-77
2023/04/12 09:30:14;;;;;;;0.10;0.10;;;14.30;77.30;;;;;;4967500;28;20033;-73
2023/04/12 09:32:40;;;;;;;0.32;0.32;;;14.20;76.00;;;;;;4969029;28;20022;-73
2023/04/12 09:35:07;;;;;;;0.20;0.20;;;14.30;75.20;;;;;;4969039;28;20045;-72
2023/04/12 09:37:33;;;;;;;0.10;0.10;;;14.70;73.00;;;;;;4968468;28;20019;-75
2023/04/12 09:40:03;;;;;;;0.10;0.10;;;14.70;72.80;;;;;;4966940;28;20034;-74
2023/04/12 09:42:29;;;;;;;0.13;0.13;;;14.60;72.10;;;;;;4958349;28;20026;-74
2023/04/12 09:44:57;;;;;;;0.20;0.20;;;14.60;71.70;;;;;;4962186;28;20118;-72
2023/04/12 09:47:39;;;;;;;0.20;0.20;;;14.10;68.60;;;;;;4961018;28;20192;-73
2023/04/12 09:50:07;;;;;;;0.10;0.10;;;14.10;69.30;;;;;;4961037;28;20354;-80
2023/04/12 09:52:37;;;;;;;0.10;0.10;;;14.00;69.20;;;;;;4960654;28;20297;-73
2023/04/12 09:55:08;;;;;;;0.20;0.20;;;14.10;68.30;;;;;;4960038;28;20022;-73
2023/04/12 09:57:41;;;;;;;0.20;0.20;;;14.40;68.00;;;;;;4960451;28;20062;-75
2023/04/12 10:00:11;;;;;;;0.45;0.45;;;14.70;67.80;;;;;;4960840;28;20026;-75
2023/04/12 10:02:42;;;;;;;0.10;0.10;;;15.00;66.60;;;;;;4953381;28;20106;-81
2023/04/12 10:05:11;;;;;;;0.17;0.17;;;15.10;64.50;;;;;;4960792;28;20623;-74
2023/04/12 10:07:40;;;;;;;0.10;0.10;;;15.10;65.30;;;;;;4960463;28;20029;-76
2023/04/12 10:10:07;;;;;;;0.10;0.10;;;15.20;64.00;;;;;;4961726;28;20082;-84
2023/04/12 10:12:36;;;;;;;0.10;0.10;;;15.30;63.50;;;;;;4962030;28;20109;-82
2023/04/12 10:15:06;;;;;;;0.10;0.10;;;15.60;63.50;;;;;;4960770;28;20078;-79
2023/04/12 10:17:34;;;;;;;0.20;0.20;;;15.70;62.60;;;;;;4962015;28;20147;-74
2023/04/12 10:20:02;;;;;;;0.10;0.10;;;15.80;61.90;;;;;;4961011;28;20054;-74
2023/04/12 10:22:28;;;;;;;0.43;0.43;;;15.90;61.80;;;;;;4952874;28;20033;-76
2023/04/12 10:24:54;;;;;;;0.20;0.20;;;16.00;61.40;;;;;;4962061;28;20700;-79
2023/04/12 10:27:26;;;;;;;0.10;0.10;;;15.90;61.10;;;;;;4960052;28;20031;-79
2023/04/12 10:29:52;;;;;;;0.10;0.10;;;15.80;60.70;;;;;;4962185;28;20054;-73
2023/04/12 10:32:21;;;;;;;0.10;0.10;;;15.90;61.00;;;;;;4960850;28;20019;-75
2023/04/12 10:34:56;;;;;;;0.10;0.10;;;16.10;60.30;;;;;;4954366;28;20023;-76
2023/04/12 10:38:00;;;;;;;0.10;0.10;;;16.30;60.90;;;;;;4960824;28;20019;-79
2023/04/12 10:40:31;;;;;;;0.10;0.10;;;16.40;61.70;;;;;;4960430;28;20034;-73
2023/04/12 10:43:21;;;;;;;0.10;0.10;;;16.60;63.90;;;;;;4960745;28;20039;-77
2023/04/12 10:45:51;;;;;;;0.10;0.10;;;16.20;59.80;;;;;;4960590;28;20019;-75
2023/04/12 10:48:32;;;;;;;0.10;0.10;;;15.90;60.20;;;;;;4960501;28;20102;-77
2023/04/12 10:51:16;;;;;;;0.17;0.17;;;15.80;60.20;;;;;;4960188;28;20037;-78
2023/04/12 10:53:43;;;;;;;0.10;0.10;;;16.70;61.70;;;;;;4959926;28;20038;-77
2023/04/12 10:56:36;;;;;;;0.10;0.10;;;16.00;62.20;;;;;;4960034;28;20027;-81
2023/04/12 10:59:03;;;;;;;0.20;0.20;;;16.00;59.20;;;;;;4960858;28;20053;-75
2023/04/12 11:01:30;;;;;;;0.10;0.10;;;16.00;59.60;;;;;;4960251;28;20118;-79
2023/04/12 11:04:23;;;;;;;0.10;0.10;;;16.00;59.30;;;;;;4960108;28;20669;-80
2023/04/12 11:06:52;;;;;;;0.20;0.20;;;16.20;61.50;;;;;;4953530;28;20035;-73
2023/04/12 11:09:25;;;;;;;0.10;0.10;;;16.40;59.70;;;;;;4959788;28;20094;-77
2023/04/12 11:12:12;;;;;;;0.10;0.10;;;16.50;59.00;;;;;;4959397;28;20026;-77
2023/04/12 11:14:45;;;;;;;0.10;0.10;;;16.60;57.10;;;;;;4960018;28;20042;-73
2023/04/12 11:17:14;;;;;;;0.10;0.10;;;16.30;57.70;;;;;;4959592;28;20023;-74
2023/04/12 11:19:53;;;;;;;0.10;0.10;;;16.30;58.00;;;;;;4958976;28;20053;-74
2023/04/12 11:22:20;;;;;;;0.10;0.10;;;16.40;58.30;;;;;;4959822;28;20674;-73
2023/04/12 11:24:51;;;;;;;0.10;0.10;;;16.50;57.70;;;;;;4959220;28;20655;-76
2023/04/12 11:27:19;;;;;;;0.20;0.20;;;16.60;56.60;;;;;;4959945;28;20026;-76
2023/04/12 11:29:48;;;;;;;0.10;0.10;;;16.50;56.30;;;;;;4959768;28;20049;-79
2023/04/12 11:32:25;;;;;;;0.10;0.10;;;16.80;57.20;;;;;;4959509;28;20522;-82
2023/04/12 11:34:54;;;;;;;0.10;0.10;;;16.80;59.00;;;;;;4960218;28;20074;-76
2023/04/12 11:37:20;;;;;;;0.10;0.10;;;17.30;56.40;;;;;;4959655;28;20015;-81
2023/04/12 11:39:48;;;;;;;0.10;0.10;;;17.60;54.70;;;;;;4959004;28;20690;-75
2023/04/12 11:42:19;;;;;;;0.10;0.10;;;17.90;54.00;;;;;;4959110;28;20027;-78
2023/04/12 11:44:46;;;;;;;0.10;0.10;;;17.90;52.30;;;;;;4960750;28;20078;-75
2023/04/12 11:47:18;;;;;;;0.10;0.10;;;18.10;53.00;;;;;;4961996;28;20693;-77
2023/04/12 11:49:55;;;;;;;0.10;0.10;;;18.10;51.50;;;;;;4953989;28;20534;-74
2023/04/12 11:52:28;;;;;;;0.10;0.10;;;18.20;51.30;;;;;;4959495;28;20030;-79
2023/04/12 11:54:57;;;;;;;0.10;0.10;;;18.00;51.10;;;;;;4959393;28;20559;-83
2023/04/12 11:57:23;;;;;;;0.68;0.68;;;17.90;52.20;;;;;;4959066;28;20047;-75
2023/04/12 11:59:49;;;;;;;0.13;0.13;;;17.70;51.20;;;;;;4959137;28;20023;-74
2023/04/12 12:02:16;;;;;;;0.10;0.10;;;17.40;51.70;;;;;;4959187;28;20014;-76
2023/04/12 12:04:45;;;;;;;1.52;1.42;;;17.10;52.60;;;;;;4958834;28;20038;-75
2023/04/12 12:07:13;;;;;;;1.17;1.17;;;16.90;51.70;;;;;;4961893;28;20026;-75
2023/04/12 12:09:40;;;;;;;0.10;0.10;;;16.70;52.70;;;;;;4960178;28;20078;-74
2023/04/12 12:12:07;;;;;;;0.10;0.10;;;16.60;52.30;;;;;;4959006;28;20019;-78
2023/04/12 12:14:35;;;;;;;0.10;0.10;;;16.60;52.50;;;;;;4959417;28;20022;-82
2023/04/12 12:17:01;;;;;;;0.10;0.10;;;16.50;52.90;;;;;;4958452;28;20034;-83
2023/04/12 12:19:36;;;;;;;0.10;0.10;;;16.40;52.40;;;;;;4958355;28;20053;-74
2023/04/12 12:22:21;;;;;;;0.10;0.10;;;16.50;52.10;;;;;;4958516;28;20226;-75
2023/04/12 12:24:51;;;;;;;0.10;0.10;;;16.50;52.40;;;;;;4958990;28;20026;-81
2023/04/12 12:27:19;;;;;;;0.10;0.10;;;16.50;51.90;;;;;;4958559;28;20048;-76
2023/04/12 12:29:53;;;;;;;0.20;0.20;;;16.60;52.00;;;;;;4952093;28;20029;-75
2023/04/12 12:32:21;;;;;;;0.10;0.10;;;16.60;51.80;;;;;;4958529;28;21726;-74
2023/04/12 12:34:55;;;;;;;0.10;0.10;;;16.60;50.80;;;;;;4958433;28;20035;-73
2023/04/12 12:37:26;;;;;;;0.10;0.10;;;16.60;51.40;;;;;;4958199;28;20026;-74
2023/04/12 12:40:06;;;;;;;0.10;0.10;;;16.80;51.00;;;;;;4958371;28;20027;-79
2023/04/12 12:42:34;;;;;;;1.70;0.68;;;17.20;51.30;;;;;;4958352;28;20154;-73
2023/04/12 12:45:03;;;;;;;0.10;0.10;;;17.50;50.90;;;;;;4958176;28;20679;-74
2023/04/12 12:47:29;;;;;;;0.10;0.10;;;17.70;50.60;;;;;;4958405;28;20018;-75
2023/04/12 12:49:55;;;;;;;0.10;0.10;;;17.60;50.70;;;;;;4958151;28;20015;-76
2023/04/12 12:52:21;;;;;;;0.10;0.10;;;17.80;50.80;;;;;;4958098;28;20112;-78
2023/04/12 12:54:47;;;;;;;0.20;0.20;;;17.80;51.20;;;;;;4958343;28;20015;-75
2023/04/12 12:57:12;;;;;;;0.10;0.10;;;17.70;50.80;;;;;;4958589;28;20030;-74
2023/04/12 12:59:38;;;;;;;0.10;0.10;;;17.60;50.90;;;;;;4958322;28;20110;-75
2023/04/12 13:02:05;;;;;;;0.10;0.10;;;17.40;50.50;;;;;;4957904;28;20030;-75
2023/04/12 13:04:31;;;;;;;0.10;0.10;;;17.40;50.70;;;;;;4958335;28;20078;-74
2023/04/12 13:06:57;;;;;;;0.10;0.10;;;17.40;51.30;;;;;;4957873;28;20140;-76